Pagina principale
METAR-TAF:

METAR-TAF

Aeroporti :

Aeroporto di Viterbo

Viterbo, Italia

latitudine: 42-26N, longitudine: 012-03E, altezza: 300 m

Osservazione

Il bollettino è stato emesso 54 minuti fa, alle 11:55 UTC
Vento 12 kt da sud-ovest
Temperature 26°C
Umidità 70%
Pressione 1017 hPa
Visibilità 10 km o più
Nubi sparse ad un'altezza di 2000 ft

METAR: LIRV 271155Z 22012KT 9999 SCT020 26/20 Q1017 RMK BKN SCT200 MON E SE CLD CIME NC VIS MIN 9999 WIND THR04 ///// KT BLU

Ora: 14:49 (12:49 UTC)

Previsione

Il bollettino è stato emesso 1 ora e 49 minuti fa, alle 11:00 UTC
Previsione valida dal 27 alle 12 UTC al 27 alle 21 UTC
Vento 10 kt da sud/sud-ovest
Visibilità 10 km o più
Nubi sparse ad un'altezza di 1800 ft
Nubi sparse ad un'altezza di 2500 ft

TAF: LIRV 271100Z 2712/2721 21010KT 9999 SCT018 SCT025

Osservazioni e previsioni meteorologiche di più di 4000 aeroporti (messaggi METAR e TAF).

Le stazioni disponibili sono rappresentate dai dischi gialli e rossi sulla carta.

Puntare il mouse per vedere il nome della stazione.

Clicca sopra per visualizzare le osservazioni e previsioni meteorologiche.

Per cambiare la mappa : fare clic sui pulsanti verdi con una croce nera per ingrandire, il pulsante verde con un trattino per diminuire, o sulla freccia verde per le mappe adiacenti.


METAR-TAF: